»·PEaware :: N256Z L70-KRNO

N256Z :: L70-KRNO

FLIGHT INFORMATION

Flight Status: Arrived
Operator: Privately registered:
United States
More flights under this callsign
Pilot: Gregory A. (9731)
Aircraft: PIPER PA-46-500TP MALIBU MERIDIAN
(P46T)
More flights by this aircraft type
Origin: L70 Agua Dulce
United States
Destination: KRNO Reno/Tahoe Intl
United States
More flights between these airports :: More routes between these airports
Route: +V459 LHS EHF J5 FMG
File this flight plan on PilotEdge
Remarks:
Altitude:
(Current/Filed)
270ft
Speed:
(Current/Filed)
274kts
Departed: 02-Feb-19 10:05 AM
Arrived: 02-Feb-19 11:49 AM
Distance/Time
Traveled:
308nm/1:44
Distance/Time
To Go:
Arrived

Flight Plot

Page will automatically refresh every two minutes.

Flight plan parsing failed; only flown route is shown


Map Options




Map Legend


Flown Route
Filed Route
Departure Airport
Arrival Airport
Navaid (VOR, NDB)
Fix

Horizontal Profiles

Position Reports

Time Latitude Longitude Heading Altitude Ground
Speed
02-Feb-19 09:35 34.498542 -118.319564 1 2606ft 0kts
02-Feb-19 09:36 34.498542 -118.319564 1 2606ft 0kts
02-Feb-19 09:37 34.498542 -118.319564 1 2606ft 0kts
02-Feb-19 09:38 34.498542 -118.319564 1 2606ft 0kts
02-Feb-19 09:39 34.498542 -118.319564 1 2606ft 0kts
02-Feb-19 09:40 34.498542 -118.319564 1 2606ft 0kts
02-Feb-19 09:41 34.498542 -118.319564 1 2606ft 0kts
02-Feb-19 09:42 34.498542 -118.319564 1 2606ft 0kts
02-Feb-19 09:43 34.498542 -118.319564 1 2606ft 0kts
02-Feb-19 09:44 34.498542 -118.319564 1 2606ft 0kts
02-Feb-19 09:45 34.498542 -118.319564 1 2606ft 0kts
02-Feb-19 09:46 34.498542 -118.319564 1 2606ft 0kts
02-Feb-19 09:47 34.498542 -118.319564 1 2606ft 0kts
02-Feb-19 09:48 34.498542 -118.319564 1 2606ft 0kts
02-Feb-19 09:49 34.498543 -118.319564 1 2606ft 0kts
02-Feb-19 09:50 34.498545 -118.319564 1 2606ft 0kts
02-Feb-19 09:51 34.498548 -118.319564 1 2606ft 0kts
02-Feb-19 09:52 34.498550 -118.319564 1 2606ft 0kts
02-Feb-19 09:53 34.498552 -118.319564 1 2606ft 0kts
02-Feb-19 09:54 34.498554 -118.319563 1 2606ft 0kts
02-Feb-19 09:55 34.498556 -118.319563 1 2606ft 0kts
02-Feb-19 09:56 34.498558 -118.319563 1 2606ft 0kts
02-Feb-19 09:57 34.498560 -118.319563 1 2606ft 0kts
02-Feb-19 09:58 34.498563 -118.319563 1 2606ft 0kts
02-Feb-19 09:59 34.498566 -118.319563 1 2606ft 0kts
02-Feb-19 10:00 34.499433 -118.319498 15 2606ft 0kts
02-Feb-19 10:01 34.499436 -118.319497 15 2606ft 0kts
02-Feb-19 10:03 34.499438 -118.319496 15 2606ft 0kts
02-Feb-19 10:04 34.499441 -118.319495 15 2606ft 0kts
02-Feb-19 10:05 34.501245 -118.316812 54 2606ft 54kts
02-Feb-19 10:06 34.524349 -118.289071 358 3789ft 144kts
02-Feb-19 10:07 34.535049 -118.330278 267 5989ft 139kts
02-Feb-19 10:08 34.533351 -118.390440 267 6287ft 208kts
02-Feb-19 10:09 34.527854 -118.460434 252 6269ft 188kts
02-Feb-19 10:10 34.510460 -118.514751 269 6263ft 151kts
02-Feb-19 10:11 34.536526 -118.533173 5 6279ft 118kts
02-Feb-19 10:12 34.562338 -118.524867 330 6322ft 141kts
02-Feb-19 10:13 34.603657 -118.551014 331 6304ft 183kts
02-Feb-19 10:14 34.648825 -118.580218 332 6484ft 177kts
02-Feb-19 10:15 34.692022 -118.606883 332 7832ft 177kts
02-Feb-19 10:16 34.737395 -118.634956 332 9447ft 184kts
02-Feb-19 10:17 34.782570 -118.662752 330 11043ft 181kts
02-Feb-19 10:18 34.828466 -118.691074 328 12641ft 175kts
02-Feb-19 10:19 34.870424 -118.716763 327 14225ft 163kts
02-Feb-19 10:20 34.917341 -118.746264 327 14620ft 216kts
02-Feb-19 10:20 34.963466 -118.775472 328 14667ft 222kts
02-Feb-19 10:22 35.020257 -118.810007 326 16317ft 178kts
02-Feb-19 10:23 35.057871 -118.832991 325 17695ft 169kts
02-Feb-19 10:23 35.095273 -118.846947 333 19028ft 164kts
02-Feb-19 10:24 35.136949 -118.862952 333 20589ft 158kts
02-Feb-19 10:26 35.190815 -118.883867 334 22366ft 210kts
02-Feb-19 10:26 35.237436 -118.901754 334 23700ft 208kts
02-Feb-19 10:27 35.292435 -118.922489 331 25297ft 203kts
02-Feb-19 10:28 35.350564 -118.931396 343 26900ft 219kts
02-Feb-19 10:29 35.416773 -118.941647 343 27375ft 258kts
02-Feb-19 10:30 35.489941 -118.954056 343 27371ft 267kts
02-Feb-19 10:31 35.563236 -118.966254 343 27372ft 264kts
02-Feb-19 10:32 35.635617 -118.978222 343 27375ft 260kts
02-Feb-19 10:33 35.707458 -118.990189 343 27377ft 262kts
02-Feb-19 10:34 35.780417 -119.002465 343 27380ft 265kts
02-Feb-19 10:35 35.853472 -119.014727 343 27380ft 265kts
02-Feb-19 10:36 35.926829 -119.027072 343 27379ft 265kts
02-Feb-19 10:37 35.999985 -119.039430 343 27378ft 266kts
02-Feb-19 10:38 36.073525 -119.051829 343 27379ft 266kts
02-Feb-19 10:39 36.146841 -119.064198 343 27382ft 266kts
02-Feb-19 10:40 36.220168 -119.076602 343 27387ft 266kts
02-Feb-19 10:41 36.293854 -119.089103 343 27393ft 266kts
02-Feb-19 10:42 36.367788 -119.101730 343 27401ft 271kts
02-Feb-19 10:43 36.443336 -119.114723 343 27403ft 274kts
02-Feb-19 10:44 36.519018 -119.127692 343 27405ft 275kts
02-Feb-19 10:45 36.595058 -119.140712 343 27406ft 275kts
02-Feb-19 10:46 36.670962 -119.153727 343 27408ft 276kts
02-Feb-19 10:47 36.746913 -119.166764 343 27410ft 276kts
02-Feb-19 10:48 36.823145 -119.179877 344 27413ft 276kts
02-Feb-19 10:49 36.899141 -119.192965 344 27417ft 276kts
02-Feb-19 10:50 36.975380 -119.206117 344 27420ft 276kts
02-Feb-19 10:51 37.051476 -119.219286 344 27423ft 276kts
02-Feb-19 10:52 37.127619 -119.232485 344 27428ft 276kts
02-Feb-19 10:53 37.204042 -119.245755 344 27434ft 276kts
02-Feb-19 10:54 37.280220 -119.259006 344 27439ft 276kts
02-Feb-19 10:55 37.356656 -119.272330 344 27448ft 277kts
02-Feb-19 10:56 37.432961 -119.285671 344 27458ft 277kts
02-Feb-19 10:57 37.509422 -119.299076 344 27460ft 278kts
02-Feb-19 10:58 37.586224 -119.312557 344 27464ft 278kts
02-Feb-19 10:59 37.662846 -119.326035 344 27463ft 278kts
02-Feb-19 11:00 37.740073 -119.339669 344 27043ft 275kts
02-Feb-19 11:01 37.817171 -119.353297 345 26393ft 284kts
02-Feb-19 11:02 37.895700 -119.367352 345 25740ft 283kts
02-Feb-19 11:03 37.971765 -119.380588 345 25083ft 272kts
02-Feb-19 11:04 38.046090 -119.393497 346 24498ft 258kts
02-Feb-19 11:05 38.112679 -119.404399 346 24451ft 232kts
02-Feb-19 11:06 38.180775 -119.416465 345 24454ft 257kts
02-Feb-19 11:07 38.251512 -119.429391 345 24451ft 256kts
02-Feb-19 11:08 38.322457 -119.442157 346 24450ft 259kts
02-Feb-19 11:09 38.393347 -119.454865 346 24434ft 254kts
02-Feb-19 11:10 38.462659 -119.467133 346 23796ft 250kts
02-Feb-19 11:11 38.532627 -119.480648 344 23100ft 256kts
02-Feb-19 11:12 38.603253 -119.495884 346 22403ft 259kts
02-Feb-19 11:13 38.674734 -119.508923 346 21702ft 257kts
02-Feb-19 11:14 38.736736 -119.520133 346 21085ft 254kts
02-Feb-19 11:15 38.806647 -119.532958 346 20483ft 250kts
02-Feb-19 11:16 38.873391 -119.545090 346 20447ft 237kts
02-Feb-19 11:17 38.938410 -119.556923 346 20442ft 235kts
02-Feb-19 11:18 39.003269 -119.568636 346 20444ft 234kts
02-Feb-19 11:19 39.068289 -119.578126 348 20449ft 236kts
02-Feb-19 11:20 39.133697 -119.587152 348 20449ft 236kts
02-Feb-19 11:21 39.199034 -119.595961 348 20449ft 236kts
02-Feb-19 11:22 39.264680 -119.602897 350 20449ft 237kts
02-Feb-19 11:23 39.330749 -119.609088 350 20453ft 237kts
02-Feb-19 11:24 39.396655 -119.615422 350 20455ft 237kts
02-Feb-19 11:25 39.464010 -119.619943 358 20251ft 245kts
02-Feb-19 11:26 39.525635 -119.610288 2 18732ft 206kts
02-Feb-19 11:27 39.581060 -119.600588 2 17125ft 197kts
02-Feb-19 11:28 39.635232 -119.591243 2 15528ft 196kts
02-Feb-19 11:29 39.689277 -119.582094 2 13931ft 195kts
02-Feb-19 11:30 39.743375 -119.572939 2 12333ft 195kts
02-Feb-19 11:31 39.796844 -119.564659 2 10916ft 185kts
02-Feb-19 11:32 39.841522 -119.558543 358 10831ft 154kts
02-Feb-19 11:33 39.858199 -119.599605 271 10825ft 133kts
02-Feb-19 11:34 39.862386 -119.646664 271 10322ft 138kts
02-Feb-19 11:35 39.866565 -119.699010 272 9830ft 143kts
02-Feb-19 11:36 39.863876 -119.745820 210 9831ft 140kts
02-Feb-19 11:37 39.827057 -119.764222 200 9811ft 132kts
02-Feb-19 11:38 39.792763 -119.767153 176 9806ft 121kts
02-Feb-19 11:39 39.759126 -119.766411 183 9589ft 112kts
02-Feb-19 11:40 39.727171 -119.769190 182 8924ft 119kts
02-Feb-19 11:41 39.693561 -119.769760 178 8082ft 121kts
02-Feb-19 11:42 39.659649 -119.768692 178 7392ft 122kts
02-Feb-19 11:43 39.625571 -119.768798 180 6754ft 122kts
02-Feb-19 11:44 39.591673 -119.769314 178 6069ft 123kts
02-Feb-19 11:45 39.557938 -119.769000 180 5374ft 108kts
02-Feb-19 11:46 39.531496 -119.769159 179 4850ft 90kts
02-Feb-19 11:47 39.503170 -119.769279 179 4419ft 65kts
02-Feb-19 11:48 39.497311 -119.770388 274 4419ft 0kts

Navigation Log

Ident Type
Flight plan parsing failed, navigation log unavailable